Time;durP1;ratioP1;P1;durP2;ratioP2;P2;SDS_P1;SDS_P2;PMS_P1;PMS_P2;Temp;Humidity;BMP_temperature;BMP_pressure;BME280_temperature;BME280_humidity;BME280_pressure;Samples;Min_cycle;Max_cycle;Signal;HPM_P1;HPM_P2
2022/07/03 00:01:40;;;;;;;6.93;3.03;;;;;;;21.07;58.22;100687.03;4175233;28;20049;-69
2022/07/03 00:03:43;;;;;;;5.38;2.95;;;;;;;21.03;57.85;100682.75;4172832;28;20037;-68
2022/07/03 00:05:46;;;;;;;5.28;2.40;;;;;;;21.00;57.77;100685.47;4163509;28;20128;-68
2022/07/03 00:07:49;;;;;;;4.85;2.83;;;;;;;20.92;57.54;100678.63;4165076;28;20057;-68
2022/07/03 00:09:52;;;;;;;7.10;3.05;;;;;;;20.91;57.28;100676.00;4177392;28;20072;-68
2022/07/03 00:11:56;;;;;;;4.18;2.75;;;;;;;20.90;57.33;100679.53;4171258;28;20033;-68
2022/07/03 00:14:00;;;;;;;6.30;3.13;;;;;;;20.82;57.48;100682.41;4173110;28;20074;-68
2022/07/03 00:16:03;;;;;;;5.83;2.77;;;;;;;20.77;57.71;100683.41;4165356;28;20057;-68
2022/07/03 00:18:06;;;;;;;5.10;2.63;;;;;;;20.70;58.07;100678.25;4164893;28;20091;-68
2022/07/03 00:20:10;;;;;;;5.15;2.63;;;;;;;20.69;58.35;100676.53;4154843;28;20478;-68
2022/07/03 00:22:15;;;;;;;8.93;2.92;;;;;;;20.66;58.59;100676.63;4177015;28;20558;-68
2022/07/03 00:24:24;;;;;;;6.45;2.35;;;;;;;20.65;59.08;100680.13;4168764;28;20452;-68
2022/07/03 00:26:30;;;;;;;7.85;2.90;;;;;;;20.64;59.00;100673.09;4164473;28;20521;-68
2022/07/03 00:28:34;;;;;;;5.68;2.72;;;;;;;20.61;59.55;100678.44;4167329;28;20132;-67
2022/07/03 00:30:38;;;;;;;6.85;2.67;;;;;;;20.62;59.68;100681.94;4155611;28;20075;-68
2022/07/03 00:32:42;;;;;;;10.07;3.05;;;;;;;20.61;59.82;100677.59;4171755;28;20068;-67
2022/07/03 00:34:47;;;;;;;4.75;2.58;;;;;;;20.60;59.89;100670.56;4172421;28;20066;-68
2022/07/03 00:36:50;;;;;;;2.90;2.15;;;;;;;20.54;60.24;100672.44;4169320;28;20127;-68
2022/07/03 00:38:53;;;;;;;4.65;2.38;;;;;;;20.51;60.27;100675.16;4162678;28;20128;-68
2022/07/03 00:40:56;;;;;;;5.60;2.65;;;;;;;20.50;60.05;100675.19;4170379;28;20131;-69
2022/07/03 00:43:00;;;;;;;8.52;2.80;;;;;;;20.45;60.38;100666.53;4169441;28;20484;-69
2022/07/03 00:45:08;;;;;;;8.43;2.72;;;;;;;20.40;60.58;100674.56;4172874;28;20497;-69
2022/07/03 00:47:12;;;;;;;6.93;2.55;;;;;;;20.35;60.61;100666.72;4171317;28;20063;-69
2022/07/03 00:49:20;;;;;;;8.77;2.47;;;;;;;20.32;60.44;100674.72;4163942;28;20072;-68
2022/07/03 00:51:27;;;;;;;5.80;2.70;;;;;;;20.31;60.17;100670.34;4168980;28;20491;-69
2022/07/03 00:53:33;;;;;;;5.05;2.30;;;;;;;20.29;60.46;100672.13;4170153;28;20034;-69
2022/07/03 00:55:37;;;;;;;8.90;2.28;;;;;;;20.27;60.75;100670.44;4169579;28;20124;-68
2022/07/03 00:57:45;;;;;;;4.13;1.98;;;;;;;20.24;60.77;100668.75;4168168;28;20065;-69
2022/07/03 00:59:49;;;;;;;6.00;2.40;;;;;;;20.23;60.24;100667.00;4165173;28;20057;-68
2022/07/03 01:02:04;;;;;;;6.45;2.53;;;;;;;20.26;59.85;100668.72;4168103;28;20460;-69
2022/07/03 01:04:21;;;;;;;4.70;1.67;;;;;;;20.23;59.32;100678.41;4154428;28;20080;-69
2022/07/03 01:06:25;;;;;;;4.57;1.90;;;;;;;20.22;59.26;100674.06;4170852;28;20037;-68
2022/07/03 01:08:41;;;;;;;7.50;2.20;;;;;;;20.26;59.92;100676.63;4169391;28;20587;-69
2022/07/03 01:10:54;;;;;;;6.03;2.85;;;;;;;20.27;60.22;100673.06;4163987;28;20718;-68
2022/07/03 01:13:04;;;;;;;5.97;3.13;;;;;;;20.23;59.96;100678.41;4185195;28;20045;-68
2022/07/03 01:15:15;;;;;;;8.13;2.38;;;;;;;20.26;59.47;100687.19;4171413;28;20047;-68
2022/07/03 01:17:26;;;;;;;3.55;2.10;;;;;;;20.22;59.94;100676.72;4157734;28;20041;-68
2022/07/03 01:19:41;;;;;;;4.10;1.92;;;;;;;20.22;59.21;100682.00;4168953;28;20067;-68
2022/07/03 01:22:03;;;;;;;3.53;2.00;;;;;;;20.18;59.02;100680.31;4170959;28;20107;-68
2022/07/03 01:24:38;;;;;;;3.88;1.85;;;;;;;20.17;59.27;100678.56;4162038;28;20037;-68
2022/07/03 01:26:47;;;;;;;2.25;1.60;;;;;;;20.15;58.65;100675.09;4169779;28;20035;-68
2022/07/03 01:28:50;;;;;;;3.17;1.75;;;;;;;20.12;59.27;100675.19;4166903;28;20409;-68
2022/07/03 01:30:55;;;;;;;1.98;1.50;;;;;;;20.14;58.79;100681.28;4163192;28;20182;-68
2022/07/03 01:33:02;;;;;;;2.47;1.35;;;;;;;20.13;59.20;100682.16;4170102;28;20033;-67
2022/07/03 01:35:08;;;;;;;3.42;1.92;;;;;;;20.14;59.03;100668.06;4171129;28;20537;-68
2022/07/03 01:37:16;;;;;;;4.00;1.58;;;;;;;20.14;59.11;100669.88;4164723;28;20038;-68
2022/07/03 01:39:19;;;;;;;5.05;2.22;;;;;;;20.14;58.65;100667.22;4156398;28;20049;-68
2022/07/03 01:41:45;;;;;;;4.93;2.08;;;;;;;20.10;58.79;100671.69;4169859;28;20076;-68
2022/07/03 01:43:50;;;;;;;4.68;2.22;;;;;;;20.08;59.11;100660.31;4162469;28;20041;-68
2022/07/03 01:45:56;;;;;;;2.75;1.83;;;;;;;20.04;59.33;100658.63;4168856;28;20414;-68
2022/07/03 01:47:59;;;;;;;3.50;1.83;;;;;;;20.01;59.45;100659.56;4172628;28;20045;-67
2022/07/03 01:50:03;;;;;;;5.28;1.65;;;;;;;19.99;59.33;100657.84;4164243;28;20065;-67
2022/07/03 01:52:26;;;;;;;4.38;1.73;;;;;;;19.93;59.16;100648.31;4163985;28;20523;-67
2022/07/03 01:54:48;;;;;;;4.38;1.85;;;;;;;19.89;59.38;100657.19;4159315;28;20044;-68
2022/07/03 01:56:53;;;;;;;3.10;1.63;;;;;;;19.87;59.28;100648.44;4163923;28;20036;-68
2022/07/03 01:58:59;;;;;;;4.50;1.83;;;;;;;19.85;59.13;100651.09;4172338;28;20055;-67
2022/07/03 02:01:07;;;;;;;4.30;2.00;;;;;;;19.81;59.98;100657.34;4163035;28;20126;-67
2022/07/03 02:03:10;;;;;;;2.47;1.55;;;;;;;19.75;60.23;100657.44;4167013;28;20140;-68
2022/07/03 02:05:29;;;;;;;3.75;1.90;;;;;;;19.77;59.80;100663.56;4170687;28;20056;-68
2022/07/03 02:07:57;;;;;;;3.35;1.70;;;;;;;19.75;59.94;100654.78;4161578;28;20033;-68
2022/07/03 02:10:04;;;;;;;3.25;1.65;;;;;;;19.77;59.83;100658.28;4155252;28;20571;-68
2022/07/03 02:12:14;;;;;;;1.88;1.30;;;;;;;19.77;59.48;100653.00;4162715;28;20567;-67
2022/07/03 02:14:18;;;;;;;2.20;1.42;;;;;;;19.75;59.67;100646.88;4165070;28;20128;-68
2022/07/03 02:16:25;;;;;;;3.72;1.80;;;;;;;19.77;59.24;100649.50;4169677;28;20037;-67
2022/07/03 02:18:30;;;;;;;5.80;2.00;;;;;;;19.71;59.02;100654.00;4172314;28;20042;-68
2022/07/03 02:20:37;;;;;;;2.05;1.50;;;;;;;19.69;59.75;100649.66;4180624;28;20041;-67
2022/07/03 02:22:43;;;;;;;1.98;1.60;;;;;;;19.64;59.52;100654.13;4170824;28;20528;-67
2022/07/03 02:24:47;;;;;;;3.47;1.45;;;;;;;19.59;60.28;100651.59;4166352;28;20136;-68
2022/07/03 02:26:56;;;;;;;4.43;1.63;;;;;;;19.59;60.07;100658.66;4163157;28;20038;-68
2022/07/03 02:29:03;;;;;;;3.63;1.88;;;;;;;19.58;60.41;100652.53;4171740;28;20041;-68
2022/07/03 02:31:10;;;;;;;4.82;1.70;;;;;;;19.57;60.35;100661.31;4167205;28;20064;-68
2022/07/03 02:33:20;;;;;;;1.60;1.45;;;;;;;19.55;60.18;100663.09;4171074;28;20049;-68
2022/07/03 02:35:28;;;;;;;2.30;1.60;;;;;;;19.54;60.58;100664.03;4145313;28;20132;-68
2022/07/03 02:37:35;;;;;;;3.88;1.77;;;;;;;19.53;59.87;100663.13;4162161;28;20041;-68
2022/07/03 02:39:44;;;;;;;2.55;1.63;;;;;;;19.53;59.95;100660.50;4170529;28;20068;-68
2022/07/03 02:41:58;;;;;;;3.58;1.67;;;;;;;19.51;59.05;100662.31;4170844;28;20045;-68
2022/07/03 02:44:08;;;;;;;3.63;1.63;;;;;;;19.46;59.19;100658.88;4166848;28;20034;-68
2022/07/03 02:48:42;;;;;;;2.90;1.80;;;;;;;19.45;58.89;100653.63;4163210;28;20584;-68
2022/07/03 02:50:48;;;;;;;4.68;1.70;;;;;;;19.53;58.37;100660.50;4162714;28;20413;-68
2022/07/03 02:53:00;;;;;;;3.42;2.03;;;;;;;19.50;58.14;100668.47;4153858;28;20132;-68
2022/07/03 02:55:09;;;;;;;3.30;1.50;;;;;;;19.44;58.10;100670.38;4170448;28;20716;-68
2022/07/03 02:57:14;;;;;;;4.78;2.40;;;;;;;19.43;58.83;100673.91;4162560;28;20042;-68
2022/07/03 02:59:26;;;;;;;2.78;1.35;;;;;;;19.44;58.40;100671.25;4164517;28;20502;-68
2022/07/03 03:01:37;;;;;;;6.78;1.70;;;;;;;19.45;58.95;100672.97;4154209;28;20053;-68
2022/07/03 03:03:51;;;;;;;2.78;1.65;;;;;;;19.43;59.61;100669.50;4166509;28;20113;-68
2022/07/03 03:05:57;;;;;;;3.15;1.58;;;;;;;19.42;59.75;100673.06;4168783;28;21826;-68
2022/07/03 03:08:12;;;;;;;3.78;1.80;;;;;;;19.40;60.10;100677.47;4165446;28;20113;-68
2022/07/03 03:10:19;;;;;;;2.50;1.40;;;;;;;19.35;59.82;100677.56;4174843;28;20400;-68
2022/07/03 03:12:29;;;;;;;3.63;1.65;;;;;;;19.35;59.65;100679.34;4147771;28;20048;-68
2022/07/03 03:14:40;;;;;;;6.45;1.88;;;;;;;19.32;59.24;100684.66;4163731;28;20124;-68
2022/07/03 03:16:47;;;;;;;2.35;1.63;;;;;;;19.30;59.48;100681.16;4171145;28;20041;-68
2022/07/03 03:18:50;;;;;;;6.00;2.10;;;;;;;19.30;59.25;100686.44;4161425;28;20042;-68
2022/07/03 03:20:56;;;;;;;3.47;1.77;;;;;;;19.27;59.33;100689.13;4168114;28;20044;-68
2022/07/03 03:23:16;;;;;;;3.45;1.60;;;;;;;19.22;59.70;100691.00;4153328;28;20034;-67
2022/07/03 03:25:18;;;;;;;2.00;1.60;;;;;;;19.22;59.64;100696.28;4150906;28;20124;-67
2022/07/03 03:27:22;;;;;;;2.42;1.98;;;;;;;19.24;59.41;100695.31;4171979;28;20047;-68
2022/07/03 03:29:26;;;;;;;3.08;1.67;;;;;;;19.21;59.78;100694.53;4171021;28;20039;-67
2022/07/03 03:31:30;;;;;;;2.70;1.83;;;;;;;19.22;59.70;100702.41;4166337;28;20042;-68
2022/07/03 03:33:34;;;;;;;2.35;1.52;;;;;;;19.29;59.61;100703.16;4168596;28;20030;-68
2022/07/03 03:35:38;;;;;;;2.55;1.70;;;;;;;19.29;59.26;100700.50;4170782;28;20073;-68
2022/07/03 03:37:42;;;;;;;5.75;1.73;;;;;;;19.22;59.75;100712.09;4156969;28;20037;-68
2022/07/03 03:39:45;;;;;;;2.45;1.75;;;;;;;19.19;59.97;100705.94;4165636;28;20040;-68
2022/07/03 03:41:48;;;;;;;3.73;1.93;;;;;;;19.17;60.17;100710.41;4175203;28;20080;-68
2022/07/03 03:43:51;;;;;;;2.92;1.63;;;;;;;19.16;59.99;100708.66;4167046;28;20041;-68
2022/07/03 03:45:54;;;;;;;4.18;2.17;;;;;;;19.11;60.37;100715.75;4152853;28;20095;-67
2022/07/03 03:47:59;;;;;;;3.35;2.03;;;;;;;19.16;60.68;100705.16;4173476;28;20381;-67
2022/07/03 03:50:02;;;;;;;2.67;1.77;;;;;;;19.09;60.92;100712.28;4169492;28;20064;-67
2022/07/03 03:52:06;;;;;;;3.40;1.83;;;;;;;19.14;60.84;100714.84;4165795;28;20462;-67
2022/07/03 03:54:09;;;;;;;2.80;1.77;;;;;;;19.11;60.99;100715.75;4145581;28;20544;-68
2022/07/03 03:56:14;;;;;;;3.65;2.00;;;;;;;19.09;61.00;100720.19;4164706;28;20041;-67
2022/07/03 03:58:17;;;;;;;2.60;1.95;;;;;;;19.09;61.02;100721.97;4168448;28;20480;-68
2022/07/03 04:00:20;;;;;;;5.50;2.10;;;;;;;19.08;60.79;100725.50;4164353;28;20503;-68
2022/07/03 04:02:23;;;;;;;4.97;2.55;;;;;;;19.13;60.90;100719.25;4143812;28;20128;-68
2022/07/03 04:04:27;;;;;;;3.47;2.25;;;;;;;19.17;60.40;100722.69;4163044;28;20574;-64
2022/07/03 04:06:30;;;;;;;5.40;2.33;;;;;;;19.26;60.40;100721.66;4164864;28;20587;-66
2022/07/03 04:08:33;;;;;;;2.72;1.73;;;;;;;19.31;60.61;100722.47;4168998;28;20044;-67
2022/07/03 04:10:36;;;;;;;1.63;1.50;;;;;;;19.43;60.60;100718.72;4164307;28;20056;-66
2022/07/03 04:12:39;;;;;;;3.60;1.90;;;;;;;19.54;59.84;100719.41;4163137;28;20030;-66
2022/07/03 04:14:42;;;;;;;2.70;1.55;;;;;;;19.50;59.97;100718.56;4165567;28;20091;-66
2022/07/03 04:16:45;;;;;;;2.60;1.58;;;;;;;19.53;59.66;100729.06;4168444;28;20099;-66
2022/07/03 04:18:48;;;;;;;3.15;1.92;;;;;;;19.66;59.53;100723.56;4155696;28;20038;-63
2022/07/03 04:20:52;;;;;;;3.00;2.17;;;;;;;19.79;59.22;100714.56;4165806;28;20047;-63
2022/07/03 04:22:55;;;;;;;5.18;2.17;;;;;;;19.77;59.23;100720.72;4171741;28;20573;-64
2022/07/03 04:24:58;;;;;;;2.47;1.80;;;;;;;19.76;59.70;100714.59;4177720;28;20041;-64
2022/07/03 04:27:01;;;;;;;5.13;1.70;;;;;;;19.76;59.34;100714.59;4170088;28;20030;-64
2022/07/03 04:29:04;;;;;;;4.60;2.05;;;;;;;19.75;59.64;100723.38;4151318;28;20054;-64
2022/07/03 04:31:07;;;;;;;4.70;2.10;;;;;;;19.85;59.61;100722.34;4173580;28;20045;-63
2022/07/03 04:33:10;;;;;;;3.30;1.42;;;;;;;19.93;59.37;100721.31;4173638;28;20041;-63
2022/07/03 04:35:13;;;;;;;5.05;2.05;;;;;;;20.02;59.13;100723.78;4162327;28;20033;-64
2022/07/03 04:37:17;;;;;;;2.20;1.60;;;;;;;20.00;59.04;100720.28;4165399;28;20520;-63
2022/07/03 04:39:20;;;;;;;6.28;2.08;;;;;;;20.06;59.11;100728.06;4145410;28;20061;-63
2022/07/03 04:41:23;;;;;;;2.70;2.03;;;;;;;20.06;59.06;100728.06;4161898;28;20488;-63
2022/07/03 04:43:26;;;;;;;4.60;2.58;;;;;;;20.07;58.82;100731.59;4186081;28;20051;-63
2022/07/03 04:45:29;;;;;;;2.38;1.55;;;;;;;20.07;58.69;100732.47;4173188;28;20041;-62
2022/07/03 04:47:32;;;;;;;2.45;1.52;;;;;;;20.14;58.86;100730.56;4166773;28;20076;-62
2022/07/03 04:49:35;;;;;;;3.97;2.10;;;;;;;20.22;58.30;100737.44;4167573;28;20037;-63
2022/07/03 04:51:38;;;;;;;2.88;1.90;;;;;;;20.10;58.85;100736.81;4173339;28;20048;-62
2022/07/03 04:53:42;;;;;;;2.40;1.98;;;;;;;20.03;59.02;100738.69;4167368;28;20033;-63
2022/07/03 04:55:45;;;;;;;3.03;1.83;;;;;;;20.03;59.20;100741.34;4155748;28;20061;-63
2022/07/03 04:57:48;;;;;;;4.72;1.92;;;;;;;20.09;59.15;100737.69;4185286;28;20044;-62
2022/07/03 04:59:51;;;;;;;2.22;1.52;;;;;;;20.08;59.73;100738.59;4151026;28;20073;-62
2022/07/03 05:01:54;;;;;;;2.13;1.70;;;;;;;20.16;59.05;100739.31;4163327;28;20041;-63
2022/07/03 05:03:57;;;;;;;3.30;1.88;;;;;;;20.22;59.21;100739.19;4160402;28;20045;-60
2022/07/03 05:06:01;;;;;;;5.60;2.60;;;;;;;20.32;59.11;100739.84;4179771;28;20043;-57
2022/07/03 05:08:04;;;;;;;4.78;1.83;;;;;;;20.30;59.41;100736.41;4157245;28;20072;-57
2022/07/03 05:10:09;;;;;;;4.95;2.03;;;;;;;20.38;58.69;100737.06;4173280;28;20141;-57
2022/07/03 05:12:12;;;;;;;3.40;1.95;;;;;;;20.32;59.04;100735.44;4177121;28;20041;-56
2022/07/03 05:14:15;;;;;;;3.35;1.80;;;;;;;20.34;58.85;100733.66;4174581;28;20041;-57
2022/07/03 05:16:18;;;;;;;4.25;1.80;;;;;;;20.40;58.81;100733.50;4147270;28;20050;-57
2022/07/03 05:18:21;;;;;;;4.20;1.92;;;;;;;20.50;58.51;100735.94;4167768;28;20163;-57
2022/07/03 05:20:28;;;;;;;2.33;1.67;;;;;;;20.49;58.16;100731.56;4145887;28;20511;-58
2022/07/03 05:22:31;;;;;;;4.50;1.77;;;;;;;20.48;58.38;100737.75;4150076;28;20129;-57
2022/07/03 05:24:34;;;;;;;4.60;1.77;;;;;;;20.46;58.12;100732.50;4159060;28;20061;-58
2022/07/03 05:26:38;;;;;;;3.03;1.45;;;;;;;20.46;58.30;100745.72;4171016;28;20072;-58
2022/07/03 05:28:42;;;;;;;2.97;2.00;;;;;;;20.40;58.64;100738.78;4162960;28;20061;-58
2022/07/03 05:30:45;;;;;;;3.90;2.00;;;;;;;20.41;58.22;100744.94;4147036;28;20563;-58
2022/07/03 05:32:48;;;;;;;2.22;1.42;;;;;;;20.46;58.24;100748.34;4161549;28;20033;-57
2022/07/03 05:34:51;;;;;;;3.88;2.15;;;;;;;20.63;58.49;100747.09;4163757;28;20076;-57
2022/07/03 05:36:56;;;;;;;2.80;1.52;;;;;;;20.69;58.14;100754.91;4166690;28;20067;-57
2022/07/03 05:41:20;;;;;;;2.63;1.88;;;;;;;20.71;58.35;100753.13;4154011;28;20125;-59
2022/07/03 05:43:24;;;;;;;2.50;1.52;;;;;;;20.68;58.58;100746.13;4158899;28;20107;-64
2022/07/03 05:45:27;;;;;;;3.95;2.25;;;;;;;20.66;58.33;100752.31;4157811;28;20610;-64
2022/07/03 05:47:30;;;;;;;2.90;2.00;;;;;;;20.72;58.13;100754.81;4162822;28;20051;-64
2022/07/03 05:49:33;;;;;;;2.35;1.60;;;;;;;20.71;58.73;100753.97;4161544;28;20067;-64
2022/07/03 05:51:35;;;;;;;2.67;1.65;;;;;;;20.79;58.65;100748.50;4165866;28;20041;-64
2022/07/03 05:53:38;;;;;;;3.20;1.92;;;;;;;20.84;58.46;100753.69;4181074;28;20061;-64
2022/07/03 05:55:41;;;;;;;3.22;1.70;;;;;;;20.87;58.61;100751.84;4176045;28;20036;-64
2022/07/03 05:57:44;;;;;;;2.30;1.58;;;;;;;20.95;58.48;100756.06;4165871;28;20124;-61
2022/07/03 05:59:48;;;;;;;2.97;2.30;;;;;;;21.01;59.11;100758.56;4160085;28;20036;-64
2022/07/03 06:01:51;;;;;;;1.83;1.27;;;;;;;21.06;58.84;100760.19;4162779;28;20033;-65
2022/07/03 06:03:54;;;;;;;6.72;1.80;;;;;;;21.21;58.49;100758.06;4151791;28;20412;-64
2022/07/03 06:05:57;;;;;;;3.40;1.75;;;;;;;21.21;58.48;100761.56;4163855;28;20041;-65
2022/07/03 06:08:00;;;;;;;2.33;1.70;;;;;;;21.32;58.28;100760.44;4162311;28;20037;-64
2022/07/03 06:10:04;;;;;;;3.95;1.40;;;;;;;21.36;57.86;100768.28;4143675;28;20476;-63
2022/07/03 06:12:08;;;;;;;1.50;1.40;;;;;;;21.41;57.86;100766.38;4141371;28;20069;-62
2022/07/03 06:14:11;;;;;;;1.38;1.27;;;;;;;21.48;57.63;100759.16;4156021;28;20420;-61
2022/07/03 06:16:16;;;;;;;5.90;2.35;;;;;;;21.61;56.85;100757.06;4150782;28;20514;-61
2022/07/03 06:18:18;;;;;;;2.53;1.52;;;;;;;21.57;57.57;100758.94;4175222;28;20040;-61
2022/07/03 06:20:22;;;;;;;2.00;1.80;;;;;;;21.75;56.15;100759.34;4156198;28;20036;-73
2022/07/03 06:22:24;;;;;;;2.72;1.90;;;;;;;21.72;56.49;100756.78;4187133;28;20404;-73
2022/07/03 06:24:27;;;;;;;4.70;1.70;;;;;;;21.58;55.59;100762.44;4177769;28;20037;-73
2022/07/03 06:26:30;;;;;;;1.92;1.33;;;;;;;21.59;55.76;100762.38;4175008;28;20068;-73
2022/07/03 06:28:33;;;;;;;4.93;1.80;;;;;;;21.66;55.65;100759.59;4177399;28;20442;-73
2022/07/03 06:30:36;;;;;;;3.65;1.52;;;;;;;21.69;56.04;100764.81;4174967;28;20037;-73
2022/07/03 06:32:40;;;;;;;3.85;1.90;;;;;;;21.71;55.97;100763.88;4162572;28;20041;-72
2022/07/03 06:34:43;;;;;;;3.45;1.42;;;;;;;21.70;55.91;100770.06;4179696;28;20055;-73
2022/07/03 06:36:46;;;;;;;3.78;1.70;;;;;;;21.83;55.38;100761.75;4172184;28;20037;-73
2022/07/03 06:38:49;;;;;;;5.78;1.40;;;;;;;21.76;54.92;100767.25;4180474;28;20041;-73
2022/07/03 06:40:52;;;;;;;5.57;1.63;;;;;;;21.83;55.46;100761.75;4180433;28;20064;-73
2022/07/03 06:42:55;;;;;;;2.33;1.50;;;;;;;21.86;54.39;100773.16;4179919;28;20123;-71
2022/07/03 06:44:58;;;;;;;2.63;1.50;;;;;;;21.86;54.17;100774.91;4180503;28;20118;-73
2022/07/03 06:47:02;;;;;;;1.85;1.33;;;;;;;21.86;54.56;100774.91;4180449;28;20072;-73
2022/07/03 06:49:07;;;;;;;3.53;1.27;;;;;;;21.91;54.58;100776.53;4179327;28;20470;-73
2022/07/03 06:51:10;;;;;;;3.58;1.30;;;;;;;22.07;53.67;100765.50;4171960;28;20037;-72
2022/07/03 06:53:18;;;;;;;6.18;2.13;;;;;;;22.09;53.83;100766.31;4163602;28;20103;-73
2022/07/03 06:55:21;;;;;;;2.28;1.30;;;;;;;22.02;53.67;100767.41;4166770;28;20407;-73
2022/07/03 06:57:24;;;;;;;2.35;1.30;;;;;;;22.06;53.81;100769.91;4158041;28;20037;-73
2022/07/03 06:59:27;;;;;;;1.88;1.50;;;;;;;22.13;53.79;100766.19;4171934;28;20128;-73
2022/07/03 07:01:30;;;;;;;3.10;1.83;;;;;;;22.15;54.26;100768.78;4168080;28;20045;-73
2022/07/03 07:03:33;;;;;;;4.50;1.75;;;;;;;22.17;54.02;100758.19;4165232;28;20037;-73
2022/07/03 07:05:38;;;;;;;2.08;1.30;;;;;;;22.27;53.86;100762.28;4183598;28;20114;-73
2022/07/03 07:07:40;;;;;;;3.25;1.75;;;;;;;22.34;54.11;100769.19;4181052;28;20064;-73
2022/07/03 07:09:43;;;;;;;3.10;1.35;;;;;;;22.33;54.05;100761.25;4156050;28;20128;-73
2022/07/03 07:11:47;;;;;;;4.27;1.87;;;;;;;22.45;54.25;100774.16;4173205;28;20045;-72
2022/07/03 07:13:50;;;;;;;2.03;1.40;;;;;;;22.46;54.16;100773.25;4181905;28;20128;-72
2022/07/03 07:15:53;;;;;;;3.43;1.30;;;;;;;22.61;53.86;100767.44;4165698;28;20046;-73
2022/07/03 07:17:56;;;;;;;2.88;1.75;;;;;;;22.67;54.40;100769.91;4166874;28;20319;-72
2022/07/03 07:19:59;;;;;;;6.68;1.70;;;;;;;22.77;53.90;100769.63;4165631;28;20056;-73
2022/07/03 07:22:04;;;;;;;2.95;1.60;;;;;;;22.79;53.63;100767.78;4166633;28;20132;-73
2022/07/03 07:24:07;;;;;;;1.90;1.40;;;;;;;22.82;53.81;100767.69;4166499;28;20046;-73
2022/07/03 07:26:10;;;;;;;1.90;1.50;;;;;;;22.77;53.43;100774.94;4175279;28;20495;-73
2022/07/03 07:28:13;;;;;;;5.03;1.50;;;;;;;22.79;53.60;100762.50;4182836;28;20037;-73
2022/07/03 07:30:16;;;;;;;1.48;1.33;;;;;;;22.86;53.50;100771.97;4183089;28;20564;-73
2022/07/03 07:32:19;;;;;;;3.30;2.10;;;;;;;22.96;52.95;100769.91;4181582;28;20049;-73
2022/07/03 07:34:22;;;;;;;1.40;1.23;;;;;;;22.95;52.96;100768.16;4181394;28;20403;-74
2022/07/03 07:36:25;;;;;;;1.83;1.33;;;;;;;22.95;52.58;100774.31;4174619;28;20111;-73
2022/07/03 07:38:29;;;;;;;3.10;1.38;;;;;;;23.06;52.69;100771.34;4164570;28;20037;-73
2022/07/03 07:40:32;;;;;;;;;;;;;;;23.08;52.05;100773.94;4165346;28;20128;-73
2022/07/03 07:42:35;;;;;;;2.65;1.15;;;;;;;23.11;51.58;100771.22;4182622;28;19921;-73
2022/07/03 07:44:38;;;;;;;1.42;1.10;;;;;;;23.19;51.88;100777.16;4182771;28;20040;-73
2022/07/03 07:46:41;;;;;;;1.75;1.05;;;;;;;23.32;51.72;100773.16;4165116;28;20041;-73
2022/07/03 07:48:44;;;;;;;2.05;1.35;;;;;;;23.32;51.52;100775.81;4182809;28;20049;-73
2022/07/03 07:50:49;;;;;;;4.43;1.10;;;;;;;23.42;51.60;100765.75;4181701;28;20500;-73
2022/07/03 07:52:52;;;;;;;4.03;1.30;;;;;;;23.53;51.26;100770.69;4163807;28;20042;-74
2022/07/03 07:54:56;;;;;;;1.33;1.02;;;;;;;23.58;51.16;100771.38;4156867;28;20560;-74
2022/07/03 07:56:59;;;;;;;2.60;1.17;;;;;;;23.61;50.95;100773.06;4182717;28;20044;-74
2022/07/03 07:59:02;;;;;;;5.30;1.42;;;;;;;23.71;49.93;100769.16;4165024;28;20041;-74
2022/07/03 08:05:46;;;;;;;1.90;1.33;;;;;;;23.88;49.84;100776.56;4182623;28;20040;-74
2022/07/03 08:07:49;;;;;;;1.42;1.13;;;;;;;23.83;49.15;100767.84;4189437;28;20064;-74
2022/07/03 08:09:53;;;;;;;4.80;1.48;;;;;;;23.81;48.94;100777.66;4164631;28;20045;-74
2022/07/03 08:11:57;;;;;;;5.22;1.52;;;;;;;23.93;47.72;100769.28;4182210;28;20087;-74
2022/07/03 08:14:00;;;;;;;;;;;;;;;23.89;48.56;100775.66;4181611;28;20083;-74
2022/07/03 08:16:03;;;;;;;2.90;1.05;;;;;;;24.02;48.77;100768.97;4188745;28;19921;-74
2022/07/03 08:18:06;;;;;;;2.00;1.38;;;;;;;24.36;47.70;100766.81;4164677;28;20045;-73
2022/07/03 08:20:10;;;;;;;3.05;1.85;;;;;;;24.55;48.52;100772.28;4165629;28;20087;-73
2022/07/03 08:22:13;;;;;;;1.38;1.10;;;;;;;24.47;48.23;100769.91;4167861;28;20037;-76
2022/07/03 08:24:16;;;;;;;1.92;1.23;;;;;;;24.44;48.06;100766.53;4182260;28;20037;-74
2022/07/03 08:26:19;;;;;;;1.88;1.20;;;;;;;24.48;48.08;100768.13;4180635;28;20047;-74
2022/07/03 08:28:24;;;;;;;2.38;1.10;;;;;;;24.51;48.00;100766.22;4156389;28;20128;-77
2022/07/03 08:30:27;;;;;;;;;;;;;;;24.39;47.19;100769.38;4177414;28;20449;-75
2022/07/03 08:32:30;;;;;;;1.38;1.20;;;;;;;24.45;46.72;100762.94;4179145;28;20006;-75
2022/07/03 08:34:33;;;;;;;1.58;1.10;;;;;;;24.56;46.77;100766.91;4187650;28;20033;-75
2022/07/03 08:36:36;;;;;;;1.88;1.40;;;;;;;24.66;47.08;100767.47;4171000;28;20047;-74
2022/07/03 08:38:39;;;;;;;1.48;0.90;;;;;;;24.71;46.68;100760.16;4165665;28;20046;-74
2022/07/03 08:40:44;;;;;;;2.25;1.30;;;;;;;24.85;46.04;100762.28;4164321;28;20136;-74
2022/07/03 08:42:48;;;;;;;3.00;1.10;;;;;;;25.00;46.38;100758.09;4165254;28;20132;-74
2022/07/03 08:44:55;;;;;;;2.50;1.15;;;;;;;25.06;46.27;100757.00;4165572;28;20042;-76
2022/07/03 08:47:00;;;;;;;2.63;1.30;;;;;;;25.06;46.65;100755.19;4168904;28;20052;-74
2022/07/03 08:49:03;;;;;;;2.92;1.00;;;;;;;25.14;46.63;100757.53;4173953;28;20055;-75
2022/07/03 08:51:06;;;;;;;1.95;1.20;;;;;;;25.20;45.39;100762.59;4179193;28;20048;-75
2022/07/03 08:53:12;;;;;;;1.67;1.10;;;;;;;25.22;45.07;100754.56;4181445;28;20111;-75
2022/07/03 08:55:16;;;;;;;1.83;1.30;;;;;;;25.43;45.45;100758.13;4181940;28;20036;-74
2022/07/03 08:57:19;;;;;;;;;;;;;;;25.44;45.95;100765.19;4182239;28;20040;-74
2022/07/03 08:59:24;;;;;;;1.33;1.20;;;;;;;25.40;45.45;100758.25;4181809;28;19983;-75
2022/07/03 09:01:29;;;;;;;2.70;1.10;;;;;;;25.48;44.69;100760.56;4154575;28;20041;-75
2022/07/03 09:03:32;;;;;;;3.20;1.20;;;;;;;25.46;44.28;100765.13;4163737;28;20042;-76
2022/07/03 09:05:36;;;;;;;2.80;1.15;;;;;;;25.54;44.62;100755.84;4165253;28;20493;-75
2022/07/03 09:07:41;;;;;;;2.22;1.00;;;;;;;25.65;44.64;100757.19;4163985;28;20493;-75
2022/07/03 09:09:45;;;;;;;2.10;1.00;;;;;;;25.70;44.80;100755.16;4165226;28;20052;-75
2022/07/03 09:11:48;;;;;;;2.13;1.15;;;;;;;25.79;44.73;100755.63;4164841;28;20064;-74
2022/07/03 09:13:51;;;;;;;2.40;1.07;;;;;;;25.93;44.98;100751.47;4165088;28;20042;-75
2022/07/03 09:15:57;;;;;;;4.40;1.05;;;;;;;25.87;43.76;100751.75;4186977;28;20039;-76
2022/07/03 09:18:03;;;;;;;2.33;1.02;;;;;;;25.94;44.25;100753.22;4188278;28;20041;-75
2022/07/03 09:20:08;;;;;;;4.35;1.27;;;;;;;26.03;43.69;100749.31;4180743;28;20041;-75
2022/07/03 09:22:22;;;;;;;4.07;1.10;;;;;;;26.17;42.60;100761.97;4165153;28;20045;-74
2022/07/03 09:24:25;;;;;;;1.58;0.80;;;;;;;26.23;43.57;100756.38;4180110;28;20088;-75
2022/07/03 09:26:29;;;;;;;2.55;0.98;;;;;;;26.33;42.24;100755.00;4164686;28;20046;-75
2022/07/03 09:28:44;;;;;;;2.42;1.23;;;;;;;26.29;41.62;100758.75;4169348;28;20399;-76
2022/07/03 09:30:57;;;;;;;4.15;1.10;;;;;;;26.35;41.79;100755.78;4176772;28;20038;-76
2022/07/03 09:33:02;;;;;;;2.63;1.10;;;;;;;26.48;41.32;100753.41;4164433;28;20046;-75
2022/07/03 09:35:13;;;;;;;4.65;0.90;;;;;;;26.55;41.56;100746.84;4164734;28;20187;-76
2022/07/03 09:37:25;;;;;;;2.25;1.08;;;;;;;26.69;40.41;100746.19;4163637;28;20136;-74
2022/07/03 09:39:30;;;;;;;3.03;1.00;;;;;;;26.83;39.92;100749.06;4179885;28;20053;-75
2022/07/03 09:41:51;;;;;;;1.65;1.00;;;;;;;26.77;40.44;100748.53;4164539;28;20037;-76
2022/07/03 09:43:57;;;;;;;4.25;1.10;;;;;;;26.68;40.01;100744.50;4176967;28;20070;-75
2022/07/03 09:46:01;;;;;;;3.55;1.20;;;;;;;26.79;39.73;100741.28;4182458;28;20504;-74
2022/07/03 09:48:21;;;;;;;3.08;1.17;;;;;;;26.87;40.37;100738.22;4172777;28;20131;-75
2022/07/03 09:50:35;;;;;;;5.93;1.30;;;;;;;26.88;40.92;100742.63;4169944;28;20787;-75
2022/07/03 09:52:40;;;;;;;3.38;1.00;;;;;;;26.85;40.24;100740.13;4175484;28;20059;-76
2022/07/03 09:54:44;;;;;;;2.97;0.93;;;;;;;26.91;39.88;100746.03;4180950;28;20472;-77